createdAt,value
2022-12-03T00:02:23.820Z,101012.94
2022-12-03T00:04:51.570Z,101016.22
2022-12-03T00:07:18.497Z,101014.78
2022-12-03T00:09:45.235Z,101010.69
2022-12-03T00:12:14.468Z,101010.69
2022-12-03T00:14:44.622Z,101018.03
2022-12-03T00:17:11.760Z,101017.44
2022-12-03T00:19:38.419Z,101020.09
2022-12-03T00:22:05.080Z,101013.13
2022-12-03T00:24:34.519Z,101020.31
2022-12-03T00:27:01.458Z,101011.09
2022-12-03T00:29:28.571Z,101011.91
2022-12-03T00:31:55.241Z,101021.31
2022-12-03T00:34:22.402Z,101016.00
2022-12-03T00:36:49.171Z,101012.72
2022-12-03T00:39:15.971Z,101012.34
2022-12-03T00:41:42.840Z,101006.59
2022-12-03T00:44:10.363Z,101004.97
2022-12-03T00:46:37.228Z,101006.19
2022-12-03T00:49:03.971Z,100996.56
2022-12-03T00:51:30.641Z,101005.97
2022-12-03T00:53:57.259Z,100997.59
2022-12-03T00:56:23.856Z,101000.47
2022-12-03T00:58:50.842Z,101001.91
2022-12-03T01:01:18.051Z,100995.59
2022-12-03T01:03:44.793Z,101002.16
2022-12-03T01:06:11.725Z,100999.88
2022-12-03T01:08:38.414Z,101005.00
2022-12-03T01:11:27.499Z,101003.78
2022-12-03T01:13:54.195Z,101008.28
2022-12-03T01:16:21.019Z,101015.00
2022-12-03T01:18:47.967Z,101008.66
2022-12-03T01:21:14.622Z,101011.53
2022-12-03T01:23:41.262Z,101011.13
2022-12-03T01:26:07.964Z,101014.56
2022-12-03T01:28:34.629Z,101015.81
2022-12-03T01:31:20.023Z,101009.47
2022-12-03T01:33:48.372Z,101015.81
2022-12-03T01:36:15.011Z,101018.06
2022-12-03T01:38:41.620Z,101016.81
2022-12-03T01:41:11.935Z,101018.25
2022-12-03T01:43:46.569Z,101018.06
2022-12-03T01:46:21.394Z,101016.03
2022-12-03T01:48:50.590Z,101013.56
2022-12-03T01:51:21.376Z,101017.63
2022-12-03T01:53:48.894Z,101014.78
2022-12-03T01:56:17.881Z,101023.19
2022-12-03T01:58:46.393Z,101015.19
2022-12-03T02:01:15.635Z,101029.09
2022-12-03T02:03:43.246Z,101017.25
2022-12-03T02:06:18.132Z,101030.13
2022-12-03T02:08:45.866Z,101026.63
2022-12-03T02:11:35.654Z,101022.56
2022-12-03T02:14:05.385Z,101026.22
2022-12-03T02:16:32.386Z,101025.41
2022-12-03T02:18:59.157Z,101025.81
2022-12-03T02:21:47.564Z,101033.59
2022-12-03T02:24:20.085Z,101028.69
2022-12-03T02:26:46.784Z,101020.72
2022-12-03T02:29:13.487Z,101022.78
2022-12-03T02:31:40.226Z,101024.81
2022-12-03T02:34:07.719Z,101018.69
2022-12-03T02:36:36.111Z,101010.50
2022-12-03T02:39:03.525Z,101016.81
2022-12-03T02:41:48.738Z,101015.19
2022-12-03T02:44:15.522Z,101015.63
2022-12-03T02:46:42.220Z,101010.28
2022-12-03T02:49:08.960Z,101016.00
2022-12-03T02:51:35.796Z,101010.88
2022-12-03T02:54:03.802Z,101013.94
2022-12-03T02:56:33.010Z,101011.28
2022-12-03T02:59:03.245Z,101018.44
2022-12-03T03:01:30.060Z,101014.75
2022-12-03T03:03:58.159Z,101019.69
2022-12-03T03:06:25.193Z,101021.34
2022-12-03T03:08:52.385Z,101022.56
2022-12-03T03:11:19.163Z,101015.22
2022-12-03T03:13:46.279Z,101018.06
2022-12-03T03:16:13.046Z,101027.06
2022-12-03T03:18:40.379Z,101012.31
2022-12-03T03:21:07.834Z,101006.19
2022-12-03T03:23:34.583Z,101008.22
2022-12-03T03:26:05.659Z,101010.69
2022-12-03T03:28:36.031Z,101015.38
2022-12-03T03:31:06.581Z,101022.97
2022-12-03T03:33:34.240Z,101020.50
2022-12-03T03:36:01.329Z,101011.28
2022-12-03T03:38:29.930Z,101012.94
2022-12-03T03:40:59.157Z,101018.47
2022-12-03T03:43:26.227Z,101013.56
2022-12-03T03:45:53.999Z,101018.66
2022-12-03T03:48:21.220Z,101020.06
2022-12-03T03:50:49.081Z,101007.81
2022-12-03T03:53:17.557Z,101017.00
2022-12-03T03:55:44.623Z,101013.72
2022-12-03T03:58:11.458Z,101014.13
2022-12-03T04:00:38.219Z,101009.44
2022-12-03T04:03:05.562Z,101007.84
2022-12-03T04:05:32.382Z,101013.09
2022-12-03T04:07:59.263Z,101009.84
2022-12-03T04:10:44.591Z,101012.72
2022-12-03T04:13:11.232Z,101009.69
2022-12-03T04:15:37.867Z,101009.69
2022-12-03T04:18:23.090Z,101007.84
2022-12-03T04:20:49.776Z,101006.00
2022-12-03T04:23:16.420Z,101004.97
2022-12-03T04:26:01.753Z,101002.91
2022-12-03T04:28:47.115Z,101009.28
2022-12-03T04:31:36.855Z,101006.22
2022-12-03T04:34:21.770Z,101008.28
2022-12-03T04:36:48.333Z,101007.81
2022-12-03T04:39:15.115Z,101008.25
2022-12-03T04:41:41.866Z,101000.50
2022-12-03T04:44:26.943Z,101002.34
2022-12-03T04:46:53.580Z,100997.84
2022-12-03T04:49:20.211Z,100994.38
2022-12-03T04:51:46.975Z,101002.94
2022-12-03T04:54:13.719Z,100997.22
2022-12-03T04:56:40.490Z,101000.91
2022-12-03T04:59:11.371Z,101000.91
2022-12-03T05:01:42.644Z,100998.44
2022-12-03T05:04:11.862Z,100995.59
2022-12-03T05:06:42.376Z,100992.72
2022-12-03T05:09:10.044Z,100997.66
2022-12-03T05:11:37.193Z,100995.56
2022-12-03T05:14:05.349Z,100988.59
2022-12-03T05:16:32.424Z,100991.88
2022-12-03T05:18:59.453Z,100991.69
2022-12-03T05:21:26.316Z,100994.31
2022-12-03T05:23:53.973Z,100985.34
2022-12-03T05:26:20.719Z,100978.41
2022-12-03T05:29:03.023Z,100985.75
2022-12-03T05:31:29.916Z,100987.78
2022-12-03T05:33:57.146Z,100978.00
2022-12-03T05:36:25.579Z,100983.72
2022-12-03T05:38:54.549Z,100984.94
2022-12-03T05:41:40.107Z,100986.16
2022-12-03T05:44:07.097Z,100979.63
2022-12-03T05:46:33.912Z,100978.81
2022-12-03T05:49:00.945Z,100986.19
2022-12-03T05:51:28.457Z,100978.00
2022-12-03T05:53:57.393Z,100978.00
2022-12-03T05:56:27.333Z,100983.31
2022-12-03T05:58:57.005Z,100982.50
2022-12-03T06:01:26.968Z,100990.25
2022-12-03T06:03:57.071Z,100981.88
2022-12-03T06:06:23.737Z,100978.59
2022-12-03T06:08:50.932Z,100981.69
2022-12-03T06:11:18.360Z,100985.75
2022-12-03T06:13:47.990Z,100977.38
2022-12-03T06:16:14.679Z,100975.94
2022-12-03T06:18:41.554Z,100976.34
2022-12-03T06:21:08.313Z,100976.75
2022-12-03T06:23:36.002Z,100974.28
2022-12-03T06:26:03.316Z,100968.97
2022-12-03T06:28:30.024Z,100963.84
2022-12-03T06:31:03.028Z,100962.41
2022-12-03T06:33:30.413Z,100961.59
2022-12-03T06:35:57.395Z,100962.81
2022-12-03T06:38:24.257Z,100961.75
2022-12-03T06:40:54.274Z,100964.00
2022-12-03T06:43:20.721Z,100960.91
2022-12-03T06:45:48.019Z,100957.38
2022-12-03T06:48:15.020Z,100965.75
2022-12-03T06:50:44.723Z,100968.41
2022-12-03T06:53:11.280Z,100964.34
2022-12-03T06:55:47.502Z,100963.56
2022-12-03T06:58:21.982Z,100965.59
2022-12-03T07:00:52.497Z,100973.13
2022-12-03T07:03:28.193Z,100987.03
2022-12-03T07:09:16.700Z,100992.78
2022-12-03T07:11:54.724Z,100995.06
2022-12-03T07:14:29.715Z,101000.53
2022-12-03T07:17:15.342Z,100999.94
2022-12-03T07:20:29.260Z,101009.31
2022-12-03T07:23:12.592Z,101007.69
2022-12-03T07:25:49.045Z,101009.72
2022-12-03T07:28:52.319Z,100999.53
2022-12-03T07:31:22.798Z,101004.00
2022-12-03T07:33:59.810Z,101001.16
2022-12-03T07:36:35.145Z,100995.88
2022-12-03T07:39:15.702Z,100999.94
2022-12-03T07:42:02.016Z,101002.22
2022-12-03T07:44:42.728Z,101005.25
2022-12-03T07:47:17.241Z,100999.94
2022-12-03T07:49:47.314Z,101000.78
2022-12-03T07:52:20.890Z,100999.34
2022-12-03T07:54:57.892Z,101000.41
2022-12-03T07:57:30.866Z,101000.41
2022-12-03T07:59:57.984Z,101007.78
2022-12-03T08:02:25.167Z,101006.56
2022-12-03T08:04:52.681Z,101007.59
2022-12-03T08:07:20.367Z,101001.06
2022-12-03T08:09:47.537Z,101003.72
2022-12-03T08:12:25.319Z,100997.19
2022-12-03T08:14:53.175Z,100995.19
2022-12-03T08:17:21.756Z,101008.28
2022-12-03T08:19:50.028Z,100991.50
2022-12-03T08:22:16.998Z,100995.59
2022-12-03T08:24:44.110Z,100987.81
2022-12-03T08:27:20.076Z,100978.78
2022-12-03T08:29:49.904Z,100981.22
2022-12-03T08:32:17.140Z,100991.81
2022-12-03T08:34:47.288Z,100992.81
2022-12-03T08:37:19.576Z,100987.25
2022-12-03T08:39:50.552Z,100988.06
2022-12-03T08:42:43.872Z,100988.44
2022-12-03T08:45:29.673Z,100988.38
2022-12-03T08:48:01.917Z,100986.72
2022-12-03T08:50:34.386Z,100992.13
2022-12-03T08:53:30.736Z,100990.16
2022-12-03T08:56:02.689Z,100995.69
2022-12-03T08:58:45.698Z,100983.06
2022-12-03T09:01:35.210Z,100992.91
2022-12-03T09:04:21.637Z,100987.38
2022-12-03T09:06:50.494Z,100972.59
2022-12-03T09:09:18.543Z,100984.44
2022-12-03T09:11:46.466Z,100977.44
2022-12-03T09:14:18.493Z,100973.00
2022-12-03T09:16:46.490Z,100962.78
2022-12-03T09:19:13.916Z,100974.19
2022-12-03T09:21:44.587Z,100968.06
2022-12-03T09:24:14.745Z,100977.44
2022-12-03T09:26:42.075Z,100978.16
2022-12-03T09:29:12.303Z,100974.84
2022-12-03T09:31:40.665Z,100978.50
2022-12-03T09:34:08.691Z,100978.44
2022-12-03T09:36:35.925Z,100981.72
2022-12-03T09:39:05.574Z,100976.41
2022-12-03T09:41:34.559Z,100973.81
2022-12-03T09:44:05.470Z,100974.84
2022-12-03T09:46:36.178Z,100972.66
2022-12-03T09:49:09.459Z,100972.53
2022-12-03T09:51:40.125Z,100974.75
2022-12-03T09:54:07.614Z,100968.88
2022-12-03T09:56:38.555Z,100970.72
2022-12-03T09:59:21.561Z,100968.31
2022-12-03T10:01:53.230Z,100959.25
2022-12-03T10:04:20.580Z,100960.31
2022-12-03T10:06:50.904Z,100949.91
2022-12-03T10:09:24.573Z,100952.75
2022-12-03T10:11:56.326Z,100955.63
2022-12-03T10:14:23.715Z,100952.31
2022-12-03T10:16:51.371Z,100946.56
2022-12-03T10:19:39.732Z,100941.13
2022-12-03T10:22:09.406Z,100948.03
2022-12-03T10:24:45.723Z,100942.91
2022-12-03T10:27:30.579Z,100941.72
2022-12-03T10:29:59.694Z,100933.16
2022-12-03T10:32:41.521Z,100938.69
2022-12-03T10:35:20.804Z,100932.50
2022-12-03T10:38:08.054Z,100921.34
2022-12-03T10:40:37.556Z,100914.53
2022-12-03T10:43:22.963Z,100917.59
2022-12-03T10:46:12.793Z,100913.97
2022-12-03T10:48:39.643Z,100916.34
2022-12-03T10:51:15.514Z,100912.72
2022-12-03T10:53:42.445Z,100901.06
2022-12-03T10:56:16.451Z,100907.31
2022-12-03T10:58:43.085Z,100899.94
2022-12-03T11:01:22.342Z,100900.66
2022-12-03T11:03:49.863Z,100873.38
2022-12-03T11:06:19.729Z,100873.13
2022-12-03T11:08:57.519Z,100865.13
2022-12-03T11:11:27.813Z,100865.38
2022-12-03T11:13:59.362Z,100875.72
2022-12-03T11:16:41.065Z,100871.22
2022-12-03T11:19:20.627Z,100867.44
2022-12-03T11:22:05.846Z,100873.81
2022-12-03T11:24:37.596Z,100870.50
2022-12-03T11:27:04.136Z,100860.69
2022-12-03T11:29:59.100Z,100861.31
2022-12-03T11:32:38.309Z,100861.09
2022-12-03T11:35:16.294Z,100857.84
2022-12-03T11:37:45.776Z,100853.31
2022-12-03T11:40:18.777Z,100859.00
2022-12-03T11:42:47.350Z,100855.97
2022-12-03T11:45:27.285Z,100866.59
2022-12-03T11:48:06.102Z,100854.31
2022-12-03T11:50:39.660Z,100857.75
2022-12-03T11:53:22.436Z,100859.81
2022-12-03T11:56:06.726Z,100847.44
2022-12-03T11:58:35.943Z,100840.13
2022-12-03T12:01:04.963Z,100841.84
2022-12-03T12:03:37.111Z,100832.00
2022-12-03T12:06:06.124Z,100836.78
2022-12-03T12:08:34.975Z,100835.63
2022-12-03T12:11:15.716Z,100828.22
2022-12-03T12:13:45.490Z,100829.81
2022-12-03T12:16:12.319Z,100824.16
2022-12-03T12:18:54.848Z,100827.94
2022-12-03T12:21:48.106Z,100824.63
2022-12-03T12:24:30.454Z,100823.75
2022-12-03T12:27:02.579Z,100813.41
2022-12-03T12:29:32.064Z,100819.53
2022-12-03T12:32:17.873Z,100815.84
2022-12-03T12:34:48.115Z,100801.72
2022-12-03T12:37:21.966Z,100808.25
2022-12-03T12:39:52.977Z,100802.16
2022-12-03T12:42:34.480Z,100800.25
2022-12-03T12:45:12.495Z,100800.53
2022-12-03T12:47:46.490Z,100794.47
2022-12-03T12:50:14.333Z,100782.78
2022-12-03T12:53:08.312Z,100793.81
2022-12-03T12:55:35.676Z,100793.72
2022-12-03T12:58:07.837Z,100791.56
2022-12-03T13:00:46.355Z,100791.28
2022-12-03T13:03:17.245Z,100786.34
2022-12-03T13:05:48.329Z,100786.25
2022-12-03T13:08:31.671Z,100778.84
2022-12-03T13:11:00.698Z,100781.91
2022-12-03T13:13:32.490Z,100783.38
2022-12-03T13:16:02.153Z,100788.03
2022-12-03T13:18:44.589Z,100789.38
2022-12-03T13:21:44.419Z,100781.75
2022-12-03T13:24:27.172Z,100772.69
2022-12-03T13:26:58.127Z,100781.59
2022-12-03T13:29:27.067Z,100773.00
2022-12-03T13:32:00.518Z,100778.03
2022-12-03T13:34:32.385Z,100777.16
2022-12-03T13:37:08.402Z,100778.75
2022-12-03T13:39:38.303Z,100775.38
2022-12-03T13:42:27.723Z,100774.59
2022-12-03T13:44:58.357Z,100776.66
2022-12-03T13:47:28.444Z,100770.47
2022-12-03T13:50:07.526Z,100770.84
2022-12-03T13:52:35.605Z,100773.28
2022-12-03T13:55:07.533Z,100761.00
2022-12-03T13:57:35.247Z,100769.66
2022-12-03T14:00:01.898Z,100757.34
2022-12-03T14:02:39.120Z,100767.97
2022-12-03T14:05:07.836Z,100755.38
2022-12-03T14:07:35.076Z,100760.69
2022-12-03T14:10:09.362Z,100761.28
2022-12-03T14:12:39.362Z,100757.44
2022-12-03T14:15:06.881Z,100752.19
2022-12-03T14:17:34.371Z,100753.66
2022-12-03T14:20:01.960Z,100759.63
2022-12-03T14:22:31.963Z,100756.97
2022-12-03T14:24:58.932Z,100757.13
2022-12-03T14:27:28.192Z,100749.00
2022-12-03T14:29:56.794Z,100749.00
2022-12-03T14:32:26.812Z,100760.00
2022-12-03T14:34:56.167Z,100760.22
2022-12-03T14:37:23.453Z,100759.25
2022-12-03T14:39:50.325Z,100761.47
2022-12-03T14:42:18.522Z,100761.75
2022-12-03T14:44:47.572Z,100766.34
2022-12-03T14:47:16.168Z,100771.25
2022-12-03T14:49:43.048Z,100776.78
2022-12-03T14:52:12.481Z,100784.31
2022-12-03T14:54:42.244Z,100782.75
2022-12-03T14:57:11.267Z,100778.78
2022-12-03T14:59:40.773Z,100778.44
2022-12-03T15:02:07.961Z,100774.06
2022-12-03T15:04:37.283Z,100776.78
2022-12-03T15:07:15.573Z,100776.38
2022-12-03T15:09:42.228Z,100780.50
2022-12-03T15:12:11.851Z,100780.50
2022-12-03T15:14:39.244Z,100780.09
2022-12-03T15:17:05.961Z,100776.81
2022-12-03T15:19:32.783Z,100781.25
2022-12-03T15:22:02.076Z,100779.22
2022-12-03T15:24:32.275Z,100783.75
2022-12-03T15:27:00.385Z,100780.69
2022-12-03T15:29:27.320Z,100783.34
2022-12-03T15:32:02.059Z,100785.59
2022-12-03T15:34:31.440Z,100781.94
2022-12-03T15:36:58.106Z,100782.38
2022-12-03T15:39:24.972Z,100779.72
2022-12-03T15:41:51.898Z,100783.34
2022-12-03T15:44:18.611Z,100784.09
2022-12-03T15:46:49.784Z,100778.75
2022-12-03T15:49:16.819Z,100774.50
2022-12-03T15:51:46.420Z,100778.59
2022-12-03T15:54:13.267Z,100772.72
2022-12-03T15:56:43.193Z,100771.94
2022-12-03T15:59:11.075Z,100770.31
2022-12-03T16:01:37.855Z,100761.28
2022-12-03T16:04:05.371Z,100771.56
2022-12-03T16:06:33.546Z,100760.53
2022-12-03T16:09:00.194Z,100761.28
2022-12-03T16:11:26.869Z,100762.53
2022-12-03T16:13:54.229Z,100759.28
2022-12-03T16:16:24.277Z,100763.34
2022-12-03T16:18:54.058Z,100756.84
2022-12-03T16:21:26.475Z,100763.75
2022-12-03T16:23:54.299Z,100769.41
2022-12-03T16:26:21.794Z,100765.56
2022-12-03T16:28:48.840Z,100767.81
2022-12-03T16:31:16.164Z,100769.09
2022-12-03T16:33:43.149Z,100765.06
2022-12-03T16:36:12.754Z,100768.34
2022-12-03T16:38:39.498Z,100766.34
2022-12-03T16:41:06.619Z,100777.31
2022-12-03T16:43:51.203Z,100770.19
2022-12-03T16:46:18.939Z,100770.16
2022-12-03T16:48:48.655Z,100766.66
2022-12-03T16:51:19.897Z,100763.78
2022-12-03T16:53:49.507Z,100768.41
2022-12-03T16:56:16.746Z,100764.16
2022-12-03T16:58:45.019Z,100756.41
2022-12-03T17:01:12.604Z,100749.47
2022-12-03T17:03:39.461Z,100759.31
2022-12-03T17:06:06.467Z,100754.78
2022-12-03T17:08:33.724Z,100749.47
2022-12-03T17:11:02.144Z,100752.81
2022-12-03T17:13:31.428Z,100752.81
2022-12-03T17:15:58.904Z,100754.00
2022-12-03T17:18:28.881Z,100751.53
2022-12-03T17:20:55.706Z,100746.66
2022-12-03T17:23:23.066Z,100744.16
2022-12-03T17:25:50.270Z,100745.97
2022-12-03T17:28:17.359Z,100748.81
2022-12-03T17:30:46.565Z,100739.78
2022-12-03T17:33:13.503Z,100741.75
2022-12-03T17:35:48.411Z,100746.03
2022-12-03T17:38:15.365Z,100748.16
2022-12-03T17:40:44.904Z,100744.94
2022-12-03T17:43:11.772Z,100751.47
2022-12-03T17:45:38.662Z,100747.00
2022-12-03T17:48:09.009Z,100736.69
2022-12-03T17:50:38.942Z,100739.47
2022-12-03T17:53:10.297Z,100737.53
2022-12-03T17:55:44.634Z,100728.03
2022-12-03T17:58:12.386Z,100732.84
2022-12-03T18:00:39.487Z,100731.81
2022-12-03T18:03:06.750Z,100731.22
2022-12-03T18:05:34.154Z,100729.00
2022-12-03T18:08:01.556Z,100719.97
2022-12-03T18:10:31.724Z,100723.84
2022-12-03T18:13:02.379Z,100720.84
2022-12-03T18:15:32.714Z,100726.59
2022-12-03T18:18:00.719Z,100725.19
2022-12-03T18:20:29.737Z,100722.59
2022-12-03T18:23:01.490Z,100725.19
2022-12-03T18:25:31.060Z,100730.72
2022-12-03T18:28:05.551Z,100720.50
2022-12-03T18:30:32.478Z,100731.56
2022-12-03T18:32:59.210Z,100721.88
2022-12-03T18:35:26.339Z,100718.56
2022-12-03T18:37:57.567Z,100725.28
2022-12-03T18:40:29.115Z,100718.88
2022-12-03T18:43:00.169Z,100721.06
2022-12-03T18:45:29.020Z,100727.69
2022-12-03T18:47:55.869Z,100714.50
2022-12-03T18:50:25.846Z,100715.06
2022-12-03T18:52:55.713Z,100718.41
2022-12-03T18:59:29.158Z,100730.50
2022-12-03T19:02:03.882Z,100723.41
2022-12-03T19:04:30.807Z,100715.97
2022-12-03T19:07:00.417Z,100719.78
2022-12-03T19:09:30.583Z,100711.41
2022-12-03T19:11:57.710Z,100710.72
2022-12-03T19:14:24.724Z,100713.34
2022-12-03T19:16:52.201Z,100714.91
2022-12-03T19:19:22.309Z,100716.75
2022-12-03T19:21:51.423Z,100717.34
2022-12-03T19:24:25.676Z,100722.72
2022-12-03T19:26:55.368Z,100717.41
2022-12-03T19:29:27.133Z,100718.59
2022-12-03T19:31:54.597Z,100722.66
2022-12-03T19:34:21.408Z,100723.31
2022-12-03T19:36:50.601Z,100727.59
2022-12-03T19:39:19.168Z,100728.91
2022-12-03T19:41:56.490Z,100721.06
2022-12-03T19:44:33.933Z,100718.16
2022-12-03T19:47:05.112Z,100718.09
2022-12-03T19:49:33.983Z,100723.72
2022-12-03T19:52:01.289Z,100724.94
2022-12-03T19:54:49.536Z,100718.06
2022-12-03T19:57:23.323Z,100716.63
2022-12-03T19:59:51.489Z,100719.38
2022-12-03T20:02:18.774Z,100718.88
2022-12-03T20:04:48.423Z,100715.13
2022-12-03T20:07:21.201Z,100716.81
2022-12-03T20:09:50.395Z,100711.06
2022-12-03T20:12:20.624Z,100708.34
2022-12-03T20:14:47.501Z,100709.31
2022-12-03T20:17:17.706Z,100705.09
2022-12-03T20:19:47.289Z,100709.75
2022-12-03T20:22:13.953Z,100706.94
2022-12-03T20:24:40.790Z,100706.94
2022-12-03T20:27:09.988Z,100703.53
2022-12-03T20:29:40.209Z,100705.16
2022-12-03T20:32:07.315Z,100711.47
2022-12-03T20:34:41.644Z,100698.81
2022-12-03T20:37:08.388Z,100700.69
2022-12-03T20:39:38.308Z,100697.22
2022-12-03T20:42:07.556Z,100700.53
2022-12-03T20:44:34.597Z,100707.91
2022-12-03T20:47:07.275Z,100692.56
2022-12-03T20:49:35.113Z,100699.28
2022-12-03T20:52:04.507Z,100693.56
2022-12-03T20:54:32.937Z,100695.38
2022-12-03T20:56:59.663Z,100684.75
2022-12-03T20:59:28.937Z,100688.25
2022-12-03T21:01:59.068Z,100699.63
2022-12-03T21:04:27.425Z,100700.38
2022-12-03T21:06:56.125Z,100697.97
2022-12-03T21:09:23.268Z,100683.63
2022-12-03T21:11:50.267Z,100688.34
2022-12-03T21:14:17.010Z,100693.88
2022-12-03T21:17:07.866Z,100682.50
2022-12-03T21:19:35.338Z,100686.16
2022-12-03T21:22:03.723Z,100690.16
2022-12-03T21:24:30.827Z,100696.06
2022-12-03T21:27:02.558Z,100680.38
2022-12-03T21:29:34.924Z,100683.22
2022-12-03T21:32:02.184Z,100678.31
2022-12-03T21:34:35.643Z,100673.78
2022-12-03T21:37:05.485Z,100672.47
2022-12-03T21:39:32.364Z,100666.72
2022-12-03T21:42:34.367Z,100665.22
2022-12-03T21:44:45.807Z,100675.78
2022-12-03T21:47:14.349Z,100674.13
2022-12-03T21:49:42.285Z,100680.03
2022-12-03T21:52:11.556Z,100674.81
2022-12-03T21:54:41.523Z,100681.22
2022-12-03T21:57:08.293Z,100686.69
2022-12-03T21:59:34.989Z,100674.53
2022-12-03T22:02:04.543Z,100677.97
2022-12-03T22:04:31.313Z,100683.00
2022-12-03T22:07:00.286Z,100682.69
2022-12-03T22:09:28.941Z,100679.78
2022-12-03T22:11:57.825Z,100676.63
2022-12-03T22:14:25.277Z,100680.47
2022-12-03T22:16:52.743Z,100673.19
2022-12-03T22:19:25.772Z,100677.72
2022-12-03T22:21:52.734Z,100671.78
2022-12-03T22:24:25.111Z,100675.72
2022-12-03T22:26:59.072Z,100674.06
2022-12-03T22:29:33.082Z,100675.28
2022-12-03T22:32:14.217Z,100672.50
2022-12-03T22:34:42.323Z,100675.56
2022-12-03T22:37:09.338Z,100671.22
2022-12-03T22:39:36.976Z,100675.44
2022-12-03T22:42:07.350Z,100669.84
2022-12-03T22:44:36.704Z,100679.63
2022-12-03T22:47:04.441Z,100682.03
2022-12-03T22:49:31.125Z,100677.91
2022-12-03T22:51:57.885Z,100678.31
2022-12-03T22:54:27.700Z,100678.53
2022-12-03T22:57:18.751Z,100667.69
2022-12-03T22:59:45.494Z,100663.19
2022-12-03T23:02:17.979Z,100658.88
2022-12-03T23:04:47.409Z,100651.25
2022-12-03T23:07:15.870Z,100636.16
2022-12-03T23:09:43.266Z,100635.78
2022-12-03T23:12:10.419Z,100629.53
2022-12-03T23:14:37.346Z,100626.28
2022-12-03T23:17:04.919Z,100614.41
2022-12-03T23:19:36.798Z,100621.13
2022-12-03T23:22:06.774Z,100616.97
2022-12-03T23:24:36.691Z,100631.84
2022-12-03T23:27:06.097Z,100634.00
2022-12-03T23:29:34.658Z,100648.25
2022-12-03T23:32:04.075Z,100644.38
2022-12-03T23:34:30.948Z,100636.81
2022-12-03T23:36:58.089Z,100637.00
2022-12-03T23:39:24.660Z,100637.53
2022-12-03T23:41:52.288Z,100631.13
2022-12-03T23:44:21.512Z,100628.88
2022-12-03T23:46:48.322Z,100624.47
2022-12-03T23:49:17.425Z,100627.78
2022-12-03T23:51:45.435Z,100632.91
2022-12-03T23:54:15.382Z,100626.78
2022-12-03T23:56:42.115Z,100638.19
2022-12-03T23:59:11.908Z,100621.81
